sensor_id;sensor_type;location;lat;lon;timestamp;P1;durP1;ratioP1;P2;durP2;ratioP2
63606;SDS011;71992;52.478;-1.918;2023-11-21T00:04:38;1.48;;;1.08;;
63606;SDS011;71992;52.478;-1.918;2023-11-21T00:07:09;1.92;;;1.35;;
63606;SDS011;71992;52.478;-1.918;2023-11-21T00:09:37;2.00;;;1.40;;
63606;SDS011;71992;52.478;-1.918;2023-11-21T00:12:11;1.70;;;1.33;;
63606;SDS011;71992;52.478;-1.918;2023-11-21T00:14:45;1.73;;;1.55;;
63606;SDS011;71992;52.478;-1.918;2023-11-21T00:17:16;2.55;;;1.60;;
63606;SDS011;71992;52.478;-1.918;2023-11-21T00:19:47;2.03;;;1.45;;
63606;SDS011;71992;52.478;-1.918;2023-11-21T00:22:19;1.90;;;1.38;;
63606;SDS011;71992;52.478;-1.918;2023-11-21T00:24:50;2.33;;;1.58;;
63606;SDS011;71992;52.478;-1.918;2023-11-21T00:27:24;2.33;;;1.67;;
63606;SDS011;71992;52.478;-1.918;2023-11-21T00:29:55;1.90;;;1.70;;
63606;SDS011;71992;52.478;-1.918;2023-11-21T00:32:25;2.00;;;1.65;;
63606;SDS011;71992;52.478;-1.918;2023-11-21T00:34:56;1.83;;;1.52;;
63606;SDS011;71992;52.478;-1.918;2023-11-21T00:37:27;3.25;;;1.98;;
63606;SDS011;71992;52.478;-1.918;2023-11-21T00:39:59;2.20;;;1.83;;
63606;SDS011;71992;52.478;-1.918;2023-11-21T00:42:35;2.08;;;1.75;;
63606;SDS011;71992;52.478;-1.918;2023-11-21T00:45:08;1.92;;;1.70;;
63606;SDS011;71992;52.478;-1.918;2023-11-21T00:47:39;2.97;;;1.90;;
63606;SDS011;71992;52.478;-1.918;2023-11-21T00:50:10;2.70;;;2.00;;
63606;SDS011;71992;52.478;-1.918;2023-11-21T00:52:41;2.30;;;1.63;;
63606;SDS011;71992;52.478;-1.918;2023-11-21T00:55:11;2.67;;;1.90;;
63606;SDS011;71992;52.478;-1.918;2023-11-21T00:57:45;3.10;;;2.50;;
63606;SDS011;71992;52.478;-1.918;2023-11-21T01:00:17;2.25;;;2.00;;
63606;SDS011;71992;52.478;-1.918;2023-11-21T01:02:48;2.22;;;1.85;;
63606;SDS011;71992;52.478;-1.918;2023-11-21T01:05:19;2.88;;;2.13;;
63606;SDS011;71992;52.478;-1.918;2023-11-21T01:07:50;2.88;;;2.13;;
63606;SDS011;71992;52.478;-1.918;2023-11-21T01:10:21;2.40;;;1.90;;
63606;SDS011;71992;52.478;-1.918;2023-11-21T01:12:54;3.13;;;2.03;;
63606;SDS011;71992;52.478;-1.918;2023-11-21T01:15:25;2.38;;;2.08;;
63606;SDS011;71992;52.478;-1.918;2023-11-21T01:17:56;2.33;;;2.13;;
63606;SDS011;71992;52.478;-1.918;2023-11-21T01:20:27;2.80;;;1.75;;
63606;SDS011;71992;52.478;-1.918;2023-11-21T01:22:58;2.90;;;2.20;;
63606;SDS011;71992;52.478;-1.918;2023-11-21T01:25:28;2.25;;;1.75;;
63606;SDS011;71992;52.478;-1.918;2023-11-21T01:28:02;2.13;;;1.85;;
63606;SDS011;71992;52.478;-1.918;2023-11-21T01:30:33;2.60;;;1.92;;
63606;SDS011;71992;52.478;-1.918;2023-11-21T01:33:05;1.95;;;1.73;;
63606;SDS011;71992;52.478;-1.918;2023-11-21T01:35:36;2.67;;;2.00;;
63606;SDS011;71992;52.478;-1.918;2023-11-21T01:38:07;2.63;;;1.77;;
63606;SDS011;71992;52.478;-1.918;2023-11-21T01:40:38;2.42;;;1.67;;
63606;SDS011;71992;52.478;-1.918;2023-11-21T01:43:11;1.90;;;1.70;;
63606;SDS011;71992;52.478;-1.918;2023-11-21T01:45:42;1.65;;;1.40;;
63606;SDS011;71992;52.478;-1.918;2023-11-21T01:48:13;1.88;;;1.60;;
63606;SDS011;71992;52.478;-1.918;2023-11-21T01:50:44;1.90;;;1.35;;
63606;SDS011;71992;52.478;-1.918;2023-11-21T01:53:16;1.92;;;1.52;;
63606;SDS011;71992;52.478;-1.918;2023-11-21T01:55:47;1.90;;;1.63;;
63606;SDS011;71992;52.478;-1.918;2023-11-21T01:58:21;3.00;;;1.55;;
63606;SDS011;71992;52.478;-1.918;2023-11-21T02:00:52;2.28;;;1.42;;
63606;SDS011;71992;52.478;-1.918;2023-11-21T02:03:23;2.40;;;1.55;;
63606;SDS011;71992;52.478;-1.918;2023-11-21T02:05:53;2.15;;;1.55;;
63606;SDS011;71992;52.478;-1.918;2023-11-21T02:08:24;2.25;;;1.50;;
63606;SDS011;71992;52.478;-1.918;2023-11-21T02:10:55;1.33;;;1.23;;
63606;SDS011;71992;52.478;-1.918;2023-11-21T02:13:28;1.75;;;1.40;;
63606;SDS011;71992;52.478;-1.918;2023-11-21T02:15:59;2.25;;;1.52;;
63606;SDS011;71992;52.478;-1.918;2023-11-21T02:18:34;2.03;;;1.50;;
63606;SDS011;71992;52.478;-1.918;2023-11-21T02:21:11;1.75;;;1.48;;
63606;SDS011;71992;52.478;-1.918;2023-11-21T02:23:44;1.70;;;1.20;;
63606;SDS011;71992;52.478;-1.918;2023-11-21T02:26:15;1.80;;;1.33;;
63606;SDS011;71992;52.478;-1.918;2023-11-21T02:28:47;1.70;;;1.37;;
63606;SDS011;71992;52.478;-1.918;2023-11-21T02:33:51;1.20;;;1.10;;
63606;SDS011;71992;52.478;-1.918;2023-11-21T02:36:23;1.33;;;1.10;;
63606;SDS011;71992;52.478;-1.918;2023-11-21T02:38:57;1.37;;;1.00;;
63606;SDS011;71992;52.478;-1.918;2023-11-21T02:41:27;0.88;;;0.77;;
63606;SDS011;71992;52.478;-1.918;2023-11-21T02:46:32;0.98;;;0.60;;
63606;SDS011;71992;52.478;-1.918;2023-11-21T02:49:04;1.45;;;0.55;;
63606;SDS011;71992;52.478;-1.918;2023-11-21T02:51:37;0.50;;;0.50;;
63606;SDS011;71992;52.478;-1.918;2023-11-21T02:54:11;0.50;;;0.50;;
63606;SDS011;71992;52.478;-1.918;2023-11-21T02:56:44;0.40;;;0.40;;
63606;SDS011;71992;52.478;-1.918;2023-11-21T02:59:15;0.50;;;0.50;;
63606;SDS011;71992;52.478;-1.918;2023-11-21T03:01:46;0.40;;;0.40;;
63606;SDS011;71992;52.478;-1.918;2023-11-21T03:04:17;0.95;;;0.40;;
63606;SDS011;71992;52.478;-1.918;2023-11-21T03:06:49;0.40;;;0.40;;
63606;SDS011;71992;52.478;-1.918;2023-11-21T03:09:23;0.40;;;0.40;;
63606;SDS011;71992;52.478;-1.918;2023-11-21T03:11:55;0.47;;;0.40;;
63606;SDS011;71992;52.478;-1.918;2023-11-21T03:14:26;0.32;;;0.32;;
63606;SDS011;71992;52.478;-1.918;2023-11-21T03:16:59;0.30;;;0.30;;
